Time,TemperatureF,DewpointF,PressureIn,WindDirection,WindDirectionDegrees,WindSpeedMPH,WindSpeedGustMPH,Humidity,HourlyPrecipIn,Conditions,Clouds,dailyrainin,SoftwareType,DateUTC
2013-01-27 00:12:00,12.9,6.0,30.36,North,355,0.0,-999.0,73,-99.99,,,0.00,weatherlink.com 1.10,2013-01-27 05:12:00,
2013-01-27 00:27:00,12.4,6.0,30.36,North,355,1.0,-999.0,76,-99.99,,,0.00,weatherlink.com 1.10,2013-01-27 05:27:00,
2013-01-27 00:42:00,12.0,6.0,30.36,North,355,0.0,-999.0,77,-99.99,,,0.00,weatherlink.com 1.10,2013-01-27 05:42:00,
2013-01-27 00:57:00,12.2,6.0,30.36,North,355,0.0,-999.0,77,-99.99,,,0.00,weatherlink.com 1.10,2013-01-27 05:57:00,
2013-01-27 01:12:00,12.6,6.0,30.37,North,355,0.0,-999.0,76,-99.99,,,0.00,weatherlink.com 1.10,2013-01-27 06:12:00,
2013-01-27 01:27:00,12.1,6.0,30.38,North,355,1.0,-999.0,77,-99.99,,,0.00,weatherlink.com 1.10,2013-01-27 06:27:00,
2013-01-27 01:42:00,11.7,6.0,30.38,ESE,123,0.0,-999.0,77,-99.99,,,0.00,weatherlink.com 1.10,2013-01-27 06:42:00,
2013-01-27 01:57:00,11.6,6.0,30.38,ESE,123,0.0,-999.0,78,-99.99,,,0.00,weatherlink.com 1.10,2013-01-27 06:57:00,
2013-01-27 02:27:00,11.0,6.0,30.40,SE,145,1.0,-999.0,79,-99.99,,,0.00,weatherlink.com 1.10,2013-01-27 07:27:00,
2013-01-27 02:42:00,10.8,6.0,30.40,SW,230,0.0,-999.0,80,-99.99,,,0.00,weatherlink.com 1.10,2013-01-27 07:42:00,
2013-01-27 02:57:00,10.7,6.0,30.40,SW,230,0.0,-999.0,80,-99.99,,,0.00,weatherlink.com 1.10,2013-01-27 07:57:00,
2013-01-27 03:12:00,10.4,5.0,30.41,SW,229,1.0,-999.0,80,-99.99,,,0.00,weatherlink.com 1.10,2013-01-27 08:12:00,
2013-01-27 03:27:00,10.3,5.0,30.40,WSW,246,0.0,-999.0,80,-99.99,,,0.00,weatherlink.com 1.10,2013-01-27 08:27:00,
2013-01-27 03:42:00,9.9,6.0,30.41,WSW,246,0.0,-999.0,82,-99.99,,,0.00,weatherlink.com 1.10,2013-01-27 08:42:00,
2013-01-27 03:57:00,10.2,6.0,30.41,WSW,246,0.0,-999.0,82,-99.99,,,0.00,weatherlink.com 1.10,2013-01-27 08:57:00,
2013-01-27 04:12:00,10.0,5.0,30.41,WSW,246,1.0,-999.0,81,-99.99,,,0.00,weatherlink.com 1.10,2013-01-27 09:12:00,
2013-01-27 04:27:00,9.7,5.0,30.41,WSW,246,0.0,-999.0,82,-99.99,,,0.00,weatherlink.com 1.10,2013-01-27 09:27:00,
2013-01-27 04:42:00,9.8,6.0,30.41,WSW,249,0.0,-999.0,83,-99.99,,,0.00,weatherlink.com 1.10,2013-01-27 09:42:00,
2013-01-27 04:57:00,11.1,7.0,30.41,NNW,346,1.0,-999.0,82,-99.99,,,0.00,weatherlink.com 1.10,2013-01-27 09:57:00,
2013-01-27 05:12:00,10.5,6.0,30.42,NNW,346,1.0,-999.0,81,-99.99,,,0.00,weatherlink.com 1.10,2013-01-27 10:12:00,
2013-01-27 05:27:00,10.3,6.0,30.42,NNW,346,1.0,-999.0,82,-99.99,,,0.00,weatherlink.com 1.10,2013-01-27 10:27:00,
2013-01-27 05:42:00,10.1,6.0,30.42,NNW,346,0.0,-999.0,83,-99.99,,,0.00,weatherlink.com 1.10,2013-01-27 10:42:00,
2013-01-27 05:57:00,9.6,6.0,30.43,NW,311,3.0,-999.0,84,-99.99,,,0.00,weatherlink.com 1.10,2013-01-27 10:57:00,
2013-01-27 06:12:00,11.9,7.0,30.43,WNW,303,4.0,-999.0,82,-99.99,,,0.00,weatherlink.com 1.10,2013-01-27 11:12:00,
2013-01-27 06:28:00,13.3,8.0,30.44,NW,314,3.0,-999.0,78,-99.99,,,0.00,weatherlink.com 1.10,2013-01-27 11:28:00,
2013-01-27 06:43:00,13.5,8.0,30.45,West,277,4.0,-999.0,77,-99.99,,,0.00,weatherlink.com 1.10,2013-01-27 11:43:00,
2013-01-27 06:58:00,14.0,8.0,30.45,WNW,298,2.0,-999.0,77,-99.99,,,0.00,weatherlink.com 1.10,2013-01-27 11:58:00,
2013-01-27 07:13:00,14.2,8.0,30.45,NW,309,3.0,-999.0,77,-99.99,,,0.00,weatherlink.com 1.10,2013-01-27 12:13:00,
2013-01-27 07:28:00,14.1,8.0,30.46,NW,306,3.0,-999.0,78,-99.99,,,0.00,weatherlink.com 1.10,2013-01-27 12:28:00,
2013-01-27 07:43:00,14.5,9.0,30.46,WNW,298,2.0,-999.0,78,-99.99,,,0.00,weatherlink.com 1.10,2013-01-27 12:43:00,
2013-01-27 07:58:00,15.1,10.0,30.47,NW,317,5.0,-999.0,79,-99.99,,,0.00,weatherlink.com 1.10,2013-01-27 12:58:00,
2013-01-27 08:13:00,16.4,10.0,30.47,NNE,24,3.0,-999.0,77,-99.99,,,0.00,weatherlink.com 1.10,2013-01-27 13:13:00,
2013-01-27 08:28:00,17.7,11.0,30.47,North,5,2.0,-999.0,75,-99.99,,,0.00,weatherlink.com 1.10,2013-01-27 13:28:00,
2013-01-27 08:43:00,18.6,11.0,30.48,North,350,4.0,-999.0,73,-99.99,,,0.00,weatherlink.com 1.10,2013-01-27 13:43:00,
2013-01-27 08:58:00,19.2,11.0,30.48,NNE,19,5.0,-999.0,71,-99.99,,,0.00,weatherlink.com 1.10,2013-01-27 13:58:00,
2013-01-27 09:13:00,19.9,11.0,30.48,NW,315,2.0,-999.0,69,-99.99,,,0.00,weatherlink.com 1.10,2013-01-27 14:13:00,
2013-01-27 09:19:00,20.2,11.0,30.48,NNE,19,5.0,-999.0,68,-99.99,,,0.00,weatherlink.com 1.10,2013-01-27 14:19:00,
2013-01-27 09:31:00,20.7,11.0,30.49,NNW,346,3.0,-999.0,67,-99.99,,,0.00,weatherlink.com 1.10,2013-01-27 14:31:00,
2013-01-27 09:46:00,21.5,11.0,30.50,WNW,303,6.0,-999.0,64,-99.99,,,0.00,weatherlink.com 1.10,2013-01-27 14:46:00,
2013-01-27 10:01:00,22.3,11.0,30.50,West,274,6.0,-999.0,63,-99.99,,,0.00,weatherlink.com 1.10,2013-01-27 15:01:00,
2013-01-27 10:16:00,23.1,11.0,30.52,NW,315,3.0,-999.0,60,-99.99,,,0.00,weatherlink.com 1.10,2013-01-27 15:16:00,
2013-01-27 10:31:00,23.9,11.0,30.52,NNW,333,1.0,-999.0,57,-99.99,,,0.00,weatherlink.com 1.10,2013-01-27 15:31:00,
2013-01-27 10:46:00,24.7,10.0,30.52,North,360,6.0,-999.0,54,-99.99,,,0.00,weatherlink.com 1.10,2013-01-27 15:46:00,
2013-01-27 11:01:00,25.8,10.0,30.52,WSW,252,2.0,-999.0,52,-99.99,,,0.00,weatherlink.com 1.10,2013-01-27 16:01:00,
2013-01-27 11:16:00,26.7,10.0,30.52,West,269,3.0,-999.0,50,-99.99,,,0.00,weatherlink.com 1.10,2013-01-27 16:16:00,
2013-01-27 11:31:00,27.1,11.0,30.51,NW,320,4.0,-999.0,52,-99.99,,,0.00,weatherlink.com 1.10,2013-01-27 16:31:00,
2013-01-27 11:46:00,27.6,10.0,30.51,NW,319,5.0,-999.0,48,-99.99,,,0.00,weatherlink.com 1.10,2013-01-27 16:46:00,
2013-01-27 12:01:00,28.4,11.0,30.51,WNW,291,4.0,-999.0,49,-99.99,,,0.00,weatherlink.com 1.10,2013-01-27 17:01:00,
2013-01-27 12:16:00,28.5,10.0,30.50,NNE,19,6.0,-999.0,46,-99.99,,,0.00,weatherlink.com 1.10,2013-01-27 17:16:00,
2013-01-27 12:31:00,28.9,10.0,30.49,NNW,332,3.0,-999.0,45,-99.99,,,0.00,weatherlink.com 1.10,2013-01-27 17:31:00,
2013-01-27 12:46:00,29.1,9.0,30.48,NNW,341,11.0,-999.0,42,-99.99,,,0.00,weatherlink.com 1.10,2013-01-27 17:46:00,
2013-01-27 13:01:00,29.6,9.0,30.48,NW,312,3.0,-999.0,43,-99.99,,,0.00,weatherlink.com 1.10,2013-01-27 18:01:00,
2013-01-27 13:16:00,30.4,10.0,30.47,North,360,6.0,-999.0,42,-99.99,,,0.00,weatherlink.com 1.10,2013-01-27 18:16:00,
2013-01-27 13:31:00,30.8,8.0,30.47,NNW,348,5.0,-999.0,38,-99.99,,,0.00,weatherlink.com 1.10,2013-01-27 18:31:00,
2013-01-27 13:47:00,31.4,8.0,30.46,North,5,7.0,-999.0,38,-99.99,,,0.00,weatherlink.com 1.10,2013-01-27 18:47:00,
2013-01-27 14:02:00,31.7,9.0,30.46,NNW,348,8.0,-999.0,38,-99.99,,,0.00,weatherlink.com 1.10,2013-01-27 19:02:00,
2013-01-27 14:17:00,32.1,8.0,30.47,WNW,290,3.0,-999.0,37,-99.99,,,0.00,weatherlink.com 1.10,2013-01-27 19:17:00,
2013-01-27 14:32:00,32.1,7.0,30.48,NW,315,6.0,-999.0,35,-99.99,,,0.00,weatherlink.com 1.10,2013-01-27 19:32:00,
2013-01-27 14:46:00,32.5,9.0,30.48,West,276,2.0,-999.0,38,-99.99,,,0.00,weatherlink.com 1.10,2013-01-27 19:46:00,
2013-01-27 15:01:00,32.4,7.0,30.47,WNW,296,3.0,-999.0,35,-99.99,,,0.00,weatherlink.com 1.10,2013-01-27 20:01:00,
2013-01-27 15:17:00,32.4,9.0,30.47,NNW,341,1.0,-999.0,37,-99.99,,,0.00,weatherlink.com 1.10,2013-01-27 20:17:00,
2013-01-27 15:32:00,32.3,8.0,30.48,NNW,331,4.0,-999.0,36,-99.99,,,0.00,weatherlink.com 1.10,2013-01-27 20:32:00,
2013-01-27 15:47:00,31.8,8.0,30.47,NNW,342,2.0,-999.0,37,-99.99,,,0.00,weatherlink.com 1.10,2013-01-27 20:47:00,
2013-01-27 16:02:00,31.8,8.0,30.47,WNW,300,3.0,-999.0,37,-99.99,,,0.00,weatherlink.com 1.10,2013-01-27 21:02:00,
2013-01-27 16:16:00,31.2,6.0,30.48,NNW,341,2.0,-999.0,35,-99.99,,,0.00,weatherlink.com 1.10,2013-01-27 21:16:00,
2013-01-27 16:32:00,30.1,7.0,30.48,NNW,331,2.0,-999.0,38,-99.99,,,0.00,weatherlink.com 1.10,2013-01-27 21:32:00,
2013-01-27 16:47:00,29.4,7.0,30.50,NNW,340,1.0,-999.0,38,-99.99,,,0.00,weatherlink.com 1.10,2013-01-27 21:47:00,
2013-01-27 17:02:00,28.9,8.0,30.49,NNW,340,0.0,-999.0,41,-99.99,,,0.00,weatherlink.com 1.10,2013-01-27 22:02:00,
2013-01-27 17:17:00,27.9,11.0,30.50,NNW,340,0.0,-999.0,49,-99.99,,,0.00,weatherlink.com 1.10,2013-01-27 22:17:00,
2013-01-27 17:32:00,26.7,11.0,30.50,NNW,340,0.0,-999.0,51,-99.99,,,0.00,weatherlink.com 1.10,2013-01-27 22:32:00,
2013-01-27 17:47:00,25.8,12.0,30.50,NNW,340,1.0,-999.0,55,-99.99,,,0.00,weatherlink.com 1.10,2013-01-27 22:47:00,
2013-01-27 18:02:00,25.3,11.0,30.50,NNW,340,0.0,-999.0,54,-99.99,,,0.00,weatherlink.com 1.10,2013-01-27 23:02:00,
2013-01-27 18:17:00,24.6,12.0,30.50,NNW,340,0.0,-999.0,59,-99.99,,,0.00,weatherlink.com 1.10,2013-01-27 23:17:00,
2013-01-27 18:32:00,24.0,12.0,30.50,NNW,341,0.0,-999.0,60,-99.99,,,0.00,weatherlink.com 1.10,2013-01-27 23:32:00,
2013-01-27 18:47:00,23.6,11.0,30.50,NNW,340,0.0,-999.0,59,-99.99,,,0.00,weatherlink.com 1.10,2013-01-27 23:47:00,
2013-01-27 19:02:00,23.3,12.0,30.51,NNW,341,0.0,-999.0,62,-99.99,,,0.00,weatherlink.com 1.10,2013-01-28 00:02:00,
2013-01-27 19:17:00,22.9,12.0,30.52,NNW,340,0.0,-999.0,62,-99.99,,,0.00,weatherlink.com 1.10,2013-01-28 00:17:00,
2013-01-27 19:32:00,22.9,12.0,30.51,NNW,340,1.0,-999.0,64,-99.99,,,0.00,weatherlink.com 1.10,2013-01-28 00:32:00,
2013-01-27 19:47:00,22.6,12.0,30.52,NNW,340,0.0,-999.0,65,-99.99,,,0.00,weatherlink.com 1.10,2013-01-28 00:47:00,
2013-01-27 20:02:00,22.4,13.0,30.52,NNW,340,0.0,-999.0,66,-99.99,,,0.00,weatherlink.com 1.10,2013-01-28 01:02:00,
2013-01-27 20:17:00,22.0,12.0,30.51,NNW,340,0.0,-999.0,65,-99.99,,,0.00,weatherlink.com 1.10,2013-01-28 01:17:00,
2013-01-27 20:32:00,22.0,12.0,30.51,NNW,340,0.0,-999.0,66,-99.99,,,0.00,weatherlink.com 1.10,2013-01-28 01:32:00,
2013-01-27 20:47:00,21.6,13.0,30.51,NNW,340,0.0,-999.0,68,-99.99,,,0.00,weatherlink.com 1.10,2013-01-28 01:47:00,
2013-01-27 21:02:00,21.5,13.0,30.51,NNW,340,1.0,-999.0,70,-99.99,,,0.00,weatherlink.com 1.10,2013-01-28 02:02:00,
2013-01-27 21:17:00,21.4,11.0,30.51,NNW,340,0.0,-999.0,64,-99.99,,,0.00,weatherlink.com 1.10,2013-01-28 02:17:00,
2013-01-27 21:32:00,21.2,12.0,30.52,NNW,340,0.0,-999.0,68,-99.99,,,0.00,weatherlink.com 1.10,2013-01-28 02:32:00,
2013-01-27 21:47:00,20.8,11.0,30.51,NNW,340,2.0,-999.0,67,-99.99,,,0.00,weatherlink.com 1.10,2013-01-28 02:47:00,
2013-01-27 22:02:00,20.4,10.0,30.52,NNW,340,0.0,-999.0,65,-99.99,,,0.00,weatherlink.com 1.10,2013-01-28 03:02:00,
2013-01-27 22:17:00,20.5,11.0,30.52,NNW,340,0.0,-999.0,66,-99.99,,,0.00,weatherlink.com 1.10,2013-01-28 03:17:00,
2013-01-27 22:32:00,20.2,10.0,30.51,NNW,340,2.0,-999.0,66,-99.99,,,0.00,weatherlink.com 1.10,2013-01-28 03:32:00,
2013-01-27 22:47:00,20.2,8.0,30.50,NNW,341,1.0,-999.0,60,-99.99,,,0.00,weatherlink.com 1.10,2013-01-28 03:47:00,
2013-01-27 23:02:00,20.2,10.0,30.51,NNW,340,0.0,-999.0,64,-99.99,,,0.00,weatherlink.com 1.10,2013-01-28 04:02:00,
2013-01-27 23:17:00,19.6,10.0,30.51,NNW,340,1.0,-999.0,67,-99.99,,,0.00,weatherlink.com 1.10,2013-01-28 04:17:00,
2013-01-27 23:32:00,19.6,9.0,30.50,NNW,340,1.0,-999.0,64,-99.99,,,0.00,weatherlink.com 1.10,2013-01-28 04:32:00,
2013-01-27 23:47:00,19.1,10.0,30.51,NNW,340,1.0,-999.0,68,-99.99,,,0.00,weatherlink.com 1.10,2013-01-28 04:47:00,